15:28
Airports
History
Links
Donate
Help keep this website running!
PayPal
Bitcoin
This page is community maintained. The information is intended for PC simulator navigation or reference.
Always use approved charts for navigation.
CYAL
Alert Bay
Alert Bay (CYAL)
Alert Bay, British Columbia, Canada
(U)
Lat/Lng:50° 34' 33.53" N / 126° 54' 33.43" W
50.575981 / -126.909286
Elevation:1'ft / 0mMSL
ID / ICAO:CYAL
Runways:1
Longest:27-09
Asphalt 837m / 2,746ft
Nearby Weather15:00 GMT 2018-02-19
Nearby weather at CYZT, Port Hardy located 21.3 nautical miles from CYAL
Altimeter: 30.24
Visibility: 20.0 statute miles
Wind: 7 knots (from 260°)
Temp: -5°c / 23°f
Humidity: 73.4%

METAR: CYZT 191500Z 26007KT 20SM FEW015 SCT240 M05/M09 A3024 RMK SC1CI2 SLP243

(Powered by phpweather)
Nearby VORs <50NM
Nearby NDBs
Runway 27 / 09
Dimensions:836.9 x 22.9m 2746' x 75'ft
Surface:Asphalt
Runway 27 [A]Runway 09 [B]
Heading:292°TH 112°TH
Lat:
Lng:
50° 34' 28.49"N
126° 54' 13.79"W
50° 34' 38.57"N
126° 54' 53.07"W
User Notes and Comments
50° 34' 33.53" N / 126° 54' 33.43" W
Distance To
Airport ID:
Nearby Airports
(U) Port McNeill 5.1 NM
AT5 W 266°
(C) Port Hardy 21.3 NM
CYZT ( WX ) WNW 289°
(C) Smith Inlet Hunting Lodge 56.3 NM
SIHL N 350°
(C) Silverthrone Glacier Strip 69.3 NM
SSGL NNE 28°
(C) Rivers Inlet 77.6 NM
YRN N 351°
(C) Campbell River 84.1 NM
CYBL ESE 120°
(U) MONARCH JUNCTION 100.6 NM
CMJN NNE 31°
VFR Chart
Flight Planning at SkyVector.com